153-й AP3

Карта отелей и гостиниц, располагающихся рядом с аэропортом 153-й AP3 :

153-й AP3
Артем
Приморский край 43° 23' 57.264" N, 132° 12' 16.596" E
153-й AP3
Артем
Приморский край 43° 23' 57.264" N, 132° 12' 16.596" E
Код аэродрома ИКАО
HHC4
Код аэродрома RU
ХХЦ4
Координаты
N43.39924° E132.20461°
Превышение над уровнем моря
21
Основная полоса
10/28
Курс магнитный
097,8/277,8
Длина основной ВПП
44
Ширина основной ВПП
44
Покрытие основной ВПП
Твёрдое
Освещение ВПП
Нет
Тип: 
Вертодром
Класс аэродрома: 
Принадлежность: 
ЭА
Статус: 
Действующий
Сайт: 
E-mail аэродрома: 
Страна: 
Россия
Регион: 
Приморский край
Город: 
Артем
Дополнительная информация: 
Владелец ПП: нет данных. Имеет круглую форму. Маркирована не нормативно.

Найти трансфер

С помощью этой формы Вы можете найти трансфер из аэропорта 153-й AP3 в город, аэропорт или вокзал:

Карта места

Javascript is required to view this map.

Погода в аэропортах:

Авиационная погода в Оренбурге

Регион: 
Погода METAR: 
UWOO 251830Z 09001MPS 0100 R08/0450N FZFG VV001 M10/M11 Q1034 R08/950345 NOSIG RMK QBB050 QFE765/1020
Время наблюдения
2021-01-25T18:30:00Z
Температура C
-10.0
Точка росы
-11.0
Направление ветра
90
Скорость ветра (узлы)
2
Метео видимость
0.06
Явления погоды
FZFG
Условия полета
LIFR
Аэропорт подробнее: 

Авиационная погода в Берлевоге

Регион: 
Погода METAR: 
ENBV 251850Z 10025KT 4000 SHSN SCT012 BKN021 M02/M05 Q1007
Время наблюдения
2021-01-25T18:50:00Z
Температура C
-2.0
Точка росы
-5.0
Направление ветра
100
Скорость ветра (узлы)
25
Метео видимость
2.49
Явления погоды
SHSN
Условия полета
IFR

Авиационная погода в Нижневартовске

Регион: 
Погода METAR: 
USNN 251830Z 13005MPS 3700 1200NE FU NSC M40/M44 Q1038 R03/410265 NOSIG RMK QFE774
Время наблюдения
2021-01-25T18:30:00Z
Температура C
-40.0
Точка росы
-44.0
Направление ветра
130
Скорость ветра (узлы)
10
Метео видимость
2.3
Явления погоды
FU
Условия полета
IFR
Аэропорт подробнее: 

Авиационная погода в Могилёве

Регион: 
Погода METAR: 
UMOO 251300Z 11005MPS 1300 R13/1300 BR OVC001 02/02 Q1001 R13/290068 NOSIG RMK QBB040
Время наблюдения
2021-01-25T13:00:00Z
Температура C
2.0
Точка росы
2.0
Направление ветра
110
Скорость ветра (узлы)
10
Метео видимость
0.81
Явления погоды
BR
Условия полета
LIFR
Аэропорт подробнее: